Главная страница
METAR-TAF:

METAR-TAF

Аэропорты :

Ушуая, Аргентина

широта: 54-48S, долгота: 068-19W, высота над уровнем моря: 16 м

Текущие метеонаблюдения

Эта сводка был подготовлена 18 минут назад, в 23:00 UTC
Ветер 7 Узел от западно-северо-западный
Температура 0°C
Влажность 74%
Давление 1020 hPa
Видимость 10 км и более
небольшая облачность на высоте 4000 фута

METAR: SAWH 152300Z 29007KT 9999 FEW040 M00/M04 Q1020

Время: 20:18 (23:18 UTC)

Прогноз

Эта сводка был подготовлена 6 часа и 18 минут назад, в 17:00 UTC
Прогноз действительный с 15-го 18 UTC до 16-го 18 UTC
Ветер 15 Узел от западный
Видимость 10 км и более
небольшая облачность на высоте 4500 фута
изменения
С 15-го 23 UTC до 16-го 01 UTC
Ветер 3 Узел переменных направлений

TAF: SAWH 151700Z 1518/1618 27015KT 9999 FEW045 TX03/1518Z TN01/1610Z BECMG 1523/1601 VRB03KT

Метеонаблюдения и прогнозы для более 4000 аэропортов (сводки METAR и TAF).

Имеющиеся станции представлены на карте желтыми и красными точками.

Чтобы увидеть название станции, наведите на нее мышь.

Затем щелкните, чтобы увидеть метеонаблюдения и метеопрогнозы.

Управление картой: чтобы увеличить масштаб, щелкните зеленые кнопки с черным крестиком; чтобы уменьшить масштаб, щелкните зеленую кнопку с тире; для просмотра соседних карт щелкайте зеленые стрелки.


METAR-TAF: